Time;durP1;ratioP1;P1;durP2;ratioP2;P2;SDS_P1;SDS_P2;PMS_P1;PMS_P2;Temp;Humidity;BMP_temperature;BMP_pressure;BME280_temperature;BME280_humidity;BME280_pressure;Samples;Min_cycle;Max_cycle;Signal;HPM_P1;HPM_P2
2022/02/06 00:00:49;;;;;;;32.03;20.43;;;;;;;1.42;100.00;101036.94;4955176;29;20043;-75
2022/02/06 00:03:15;;;;;;;31.33;21.10;;;;;;;1.66;100.00;101062.63;4952513;29;20031;-78
2022/02/06 00:05:41;;;;;;;32.47;19.90;;;;;;;1.34;100.00;101004.00;4937700;29;20098;-77
2022/02/06 00:08:11;;;;;;;33.03;20.83;;;;;;;1.71;100.00;101055.38;4954975;29;20138;-75
2022/02/06 00:10:36;;;;;;;;;;;;;;;1.72;100.00;101063.16;4938196;29;20098;-76
2022/02/06 00:13:02;;;;;;;36.57;22.17;;;;;;;1.55;100.00;101041.38;4953844;29;19919;-73
2022/02/06 00:15:28;;;;;;;40.17;23.17;;;;;;;1.42;100.00;101051.31;4954798;29;20032;-73
2022/02/06 00:17:53;;;;;;;34.07;23.10;;;;;;;1.34;100.00;101053.22;4954907;29;20035;-74
2022/02/06 00:20:20;;;;;;;32.47;22.27;;;;;;;1.19;100.00;101041.78;4941661;28;20039;-78
2022/02/06 00:22:51;;;;;;;35.17;22.57;;;;;;;1.09;100.00;101041.00;4978753;28;20419;-81
2022/02/06 00:25:37;;;;;;;36.17;22.10;;;;;;;1.13;100.00;101035.41;4973629;28;20031;-79
2022/02/06 00:31:15;;;;;;;34.60;22.77;;;;;;;1.23;100.00;101048.91;4932498;29;20058;-79
2022/02/06 00:34:02;;;;;;;34.93;22.67;;;;;;;1.33;100.00;101066.69;4935700;29;20050;-77
2022/02/06 00:39:11;;;;;;;37.03;23.33;;;;;;;1.33;100.00;101023.44;4952425;29;20434;-76
2022/02/06 00:41:37;;;;;;;36.33;22.40;;;;;;;1.40;100.00;101029.97;4952397;29;20031;-77
2022/02/06 00:44:05;;;;;;;39.70;23.50;;;;;;;1.73;100.00;101074.19;4952198;29;20081;-76
2022/02/06 00:46:33;;;;;;;34.27;21.90;;;;;;;1.73;100.00;101062.38;4952154;29;20047;-75
2022/02/06 00:49:02;;;;;;;33.87;22.07;;;;;;;1.65;100.00;101039.63;4952374;29;20114;-76
2022/02/06 00:51:38;;;;;;;31.85;19.80;;;;;;;1.90;100.00;101066.28;4919808;29;20047;-76
2022/02/06 00:54:04;;;;;;;33.43;20.33;;;;;;;1.94;100.00;101063.25;4951983;28;20050;-77
2022/02/06 00:56:30;;;;;;;28.67;20.23;;;;;;;1.94;100.00;101055.59;4951770;29;20422;-78
2022/02/06 00:58:56;;;;;;;28.73;20.10;;;;;;;1.91;100.00;101070.63;4951626;29;20031;-76
2022/02/06 01:01:21;;;;;;;31.97;21.57;;;;;;;1.85;100.00;101066.69;4951887;29;20118;-80
2022/02/06 01:03:47;;;;;;;33.67;22.00;;;;;;;1.84;100.00;101075.09;4951633;29;20112;-82
2022/02/06 01:06:12;;;;;;;36.63;22.00;;;;;;;1.61;100.00;101046.97;4953795;29;21110;-80
2022/02/06 01:08:38;;;;;;;37.73;22.83;;;;;;;1.82;100.00;101084.25;4953740;28;20494;-79
2022/02/06 01:11:08;;;;;;;36.77;22.80;;;;;;;1.86;100.00;101083.75;4954251;29;20039;-80
2022/02/06 01:13:49;;;;;;;34.87;21.13;;;;;;;1.74;100.00;101056.50;4953995;29;20027;-81
2022/02/06 01:16:24;;;;;;;30.43;20.53;;;;;;;1.91;100.00;101083.34;4953123;29;20106;-80
2022/02/06 01:19:03;;;;;;;33.93;21.00;;;;;;;1.83;100.00;101096.22;4953735;28;20031;-82
2022/02/06 01:21:50;;;;;;;35.35;21.17;;;;;;;1.29;100.00;101021.44;4970348;28;20513;-79
2022/02/06 01:24:32;;;;;;;29.60;19.23;;;;;;;1.53;100.00;101062.38;4973081;28;20034;-77
2022/02/06 01:27:08;;;;;;;29.37;18.97;;;;;;;1.34;100.00;101093.03;4972727;28;20113;-80
2022/02/06 01:32:16;;;;;;;31.93;19.67;;;;;;;1.17;100.00;101089.94;4973046;28;20121;-79
2022/02/06 01:42:17;;;;;;;34.53;21.80;;;;;;;1.10;100.00;101090.22;4972779;28;20104;-79
2022/02/06 02:01:26;;;;;;;31.90;21.33;;;;;;;0.68;100.00;101053.63;4952871;29;20046;-79
2022/02/06 02:04:11;;;;;;;31.80;20.50;;;;;;;1.01;100.00;101086.88;4951720;29;20564;-80
2022/02/06 02:20:41;;;;;;;36.73;22.43;;;;;;;0.63;100.00;101105.69;4950041;29;20114;-79
2022/02/06 02:49:40;;;;;;;26.33;18.40;;;;;;;0.58;100.00;101132.38;4911926;29;20126;-76
2022/02/06 02:52:13;;;;;;;29.17;19.30;;;;;;;0.63;100.00;101123.50;4912037;29;20447;-79
2022/02/06 02:54:41;;;;;;;26.33;17.50;;;;;;;0.69;100.00;101133.31;4912389;29;20091;-76
2022/02/06 02:57:19;;;;;;;24.93;16.47;;;;;;;0.78;100.00;101141.72;4934838;29;20486;-79
2022/02/06 03:02:10;;;;;;;26.90;16.83;;;;;;;0.74;100.00;101140.56;4934779;29;20507;-79
2022/02/06 03:04:35;;;;;;;23.33;15.03;;;;;;;0.76;100.00;101151.75;4934560;29;20528;-79
2022/02/06 03:07:03;;;;;;;25.70;16.03;;;;;;;0.88;100.00;101163.75;4946971;28;20101;-78
2022/02/06 03:09:34;;;;;;;24.07;15.53;;;;;;;0.85;100.00;101153.31;4975791;28;20142;-77
2022/02/06 03:11:59;;;;;;;22.90;14.83;;;;;;;0.77;100.00;101140.84;4958252;28;20027;-75
2022/02/06 03:14:39;;;;;;;23.30;15.03;;;;;;;0.71;100.00;101127.59;4975460;28;20031;-76
2022/02/06 03:17:05;;;;;;;20.70;14.38;;;;;;;0.74;100.00;101126.97;4975101;28;20564;-76
2022/02/06 03:19:39;;;;;;;23.00;15.13;;;;;;;1.00;100.00;101184.25;4975060;28;20031;-79
2022/02/06 03:22:05;;;;;;;25.53;15.07;;;;;;;0.79;100.00;101174.00;4975420;28;20393;-76
2022/02/06 03:24:39;;;;;;;24.60;15.43;;;;;;;0.77;100.00;101180.59;4975350;28;20035;-76
2022/02/06 03:27:05;;;;;;;24.13;15.30;;;;;;;0.64;100.00;101150.69;4974023;28;20058;-79
2022/02/06 03:29:30;;;;;;;23.43;15.73;;;;;;;0.84;100.00;101182.94;4974978;28;20516;-77
2022/02/06 03:31:56;;;;;;;23.23;15.50;;;;;;;0.84;100.00;101166.78;4975141;28;20031;-77
2022/02/06 03:34:21;;;;;;;24.10;14.57;;;;;;;0.72;100.00;101184.38;4975248;28;20106;-78
2022/02/06 03:36:47;;;;;;;28.70;16.20;;;;;;;0.60;100.00;101189.31;4973790;28;20093;-78
2022/02/06 03:39:15;;;;;;;30.53;18.40;;;;;;;0.45;100.00;101176.13;4975147;28;20038;-76
2022/02/06 03:41:53;;;;;;;28.93;17.50;;;;;;;0.55;100.00;101177.81;4974895;28;20130;-79
2022/02/06 03:44:24;;;;;;;26.20;17.67;;;;;;;0.56;100.00;101175.44;4974815;28;20041;-77
2022/02/06 03:47:00;;;;;;;28.87;18.40;;;;;;;0.51;100.00;101173.22;4975242;28;20126;-80
2022/02/06 03:49:38;;;;;;;29.87;18.70;;;;;;;0.54;100.00;101191.31;4957619;28;20545;-80
2022/02/06 03:52:06;;;;;;;28.70;18.50;;;;;;;0.55;100.00;101190.50;4954109;29;20033;-81
2022/02/06 03:54:31;;;;;;;31.40;19.43;;;;;;;0.39;100.00;101166.31;4955008;29;20490;-80
2022/02/06 03:56:59;;;;;;;28.00;18.23;;;;;;;0.57;100.00;101191.56;4955187;29;20037;-81
2022/02/06 03:59:24;;;;;;;27.60;17.80;;;;;;;0.55;100.00;101191.44;4955369;29;20027;-78
2022/02/06 04:01:50;;;;;;;31.00;17.70;;;;;;;0.31;100.00;101175.78;4955362;28;20137;-80
2022/02/06 04:04:15;;;;;;;28.40;18.60;;;;;;;0.30;100.00;101189.25;4955464;29;20038;-78
2022/02/06 04:06:41;;;;;;;35.27;20.80;;;;;;;0.34;100.00;101203.09;4953742;28;20031;-76
2022/02/06 04:09:13;;;;;;;32.43;20.73;;;;;;;0.18;100.00;101197.41;4954734;29;20047;-80
2022/02/06 04:11:51;;;;;;;34.07;20.63;;;;;;;-0.34;100.00;101111.63;4955121;29;20133;-81
2022/02/06 04:14:29;;;;;;;38.20;20.20;;;;;;;0.31;100.00;101201.19;4954841;29;20024;-77
2022/02/06 04:16:58;;;;;;;30.03;19.67;;;;;;;0.19;100.00;101150.94;4954922;29;20086;-76
2022/02/06 04:19:27;;;;;;;29.25;18.42;;;;;;;0.37;100.00;101195.75;4955325;28;20031;-79
2022/02/06 04:21:57;;;;;;;29.00;18.67;;;;;;;0.21;100.00;101192.59;4972673;28;20045;-78
2022/02/06 04:24:24;;;;;;;28.93;18.03;;;;;;;0.28;100.00;101192.41;4962563;28;20507;-80
2022/02/06 04:26:52;;;;;;;27.70;18.03;;;;;;;0.34;100.00;101198.03;4974347;28;20034;-76
2022/02/06 04:29:18;;;;;;;28.27;18.00;;;;;;;0.45;100.00;101192.25;4974423;28;20050;-78
2022/02/06 04:31:45;;;;;;;26.70;17.63;;;;;;;0.38;100.00;101181.41;4973997;28;20476;-79
2022/02/06 04:34:11;;;;;;;26.50;16.33;;;;;;;0.38;100.00;101184.84;4973821;28;20030;-78
2022/02/06 04:36:50;;;;;;;28.70;18.50;;;;;;;0.23;100.00;101180.94;4974039;28;20125;-80
2022/02/06 04:44:47;;;;;;;28.87;18.80;;;;;;;-0.22;100.00;101162.56;4993421;28;20038;-81
2022/02/06 05:14:38;;;;;;;43.93;25.60;;;;;;;-0.21;100.00;101232.88;4973378;28;20034;-82
2022/02/06 05:17:40;;;;;;;39.83;20.93;;;;;;;-0.14;100.00;101246.13;4960854;28;20030;-80
2022/02/06 05:30:18;;;;;;;44.30;26.57;;;;;;;-0.36;100.00;101244.16;4973316;28;20045;-78
2022/02/06 05:35:22;;;;;;;56.33;27.90;;;;;;;-0.47;100.00;101262.53;4973034;28;20034;-82
2022/02/06 05:37:48;;;;;;;47.70;26.00;;;;;;;-0.55;100.00;101265.25;4955411;28;20039;-80
2022/02/06 05:40:13;;;;;;;45.77;25.63;;;;;;;-0.41;100.00;101280.84;4972211;28;20038;-82
2022/02/06 05:42:39;;;;;;;43.53;27.33;;;;;;;-0.42;100.00;101272.38;4972800;28;20027;-81
2022/02/06 05:45:05;;;;;;;47.10;29.23;;;;;;;-0.37;100.00;101272.81;4955696;28;20666;-84
2022/02/06 05:47:33;;;;;;;53.27;27.70;;;;;;;-0.58;100.00;101277.63;4955596;28;20035;-83
2022/02/06 05:49:59;;;;;;;52.57;33.73;;;;;;;-0.65;100.00;101275.25;4955803;28;20030;-79
2022/02/06 05:52:25;;;;;;;42.13;27.43;;;;;;;-0.75;100.00;101297.97;4983424;28;20023;-77
2022/02/06 05:54:51;;;;;;;48.87;27.73;;;;;;;-1.11;100.00;101302.16;4981535;28;20101;-78
2022/02/06 05:57:17;;;;;;;38.73;26.53;;;;;;;-1.03;100.00;101291.13;4982566;28;20014;-77
2022/02/06 05:59:43;;;;;;;40.47;25.83;;;;;;;-0.88;100.00;101285.78;4978647;28;20023;-73
2022/02/06 06:02:09;;;;;;;44.43;27.03;;;;;;;-0.61;100.00;101300.19;4992143;28;20041;-78
2022/02/06 06:04:34;;;;;;;29.10;17.20;;;;;;;-0.50;100.00;101294.47;4992197;28;20041;-80
2022/02/06 06:07:03;;;;;;;26.63;17.63;;;;;;;-0.57;100.00;101266.75;4992400;28;20035;-77
2022/02/06 06:09:28;;;;;;;28.33;16.63;;;;;;;-0.08;100.00;101302.53;4992047;28;20088;-78
2022/02/06 06:11:54;;;;;;;31.23;19.70;;;;;;;0.13;100.00;101308.72;4992071;28;20058;-76
2022/02/06 06:14:19;;;;;;;36.00;20.50;;;;;;;0.09;100.00;101310.06;4991522;28;20088;-80
2022/02/06 06:16:45;;;;;;;36.70;23.73;;;;;;;0.08;100.00;101315.00;4991545;28;20026;-78
2022/02/06 06:19:12;;;;;;;47.60;25.47;;;;;;;0.09;100.00;101315.16;4991603;28;20034;-77
2022/02/06 06:21:41;;;;;;;44.47;28.20;;;;;;;-0.26;100.00;101295.00;4973198;28;20034;-79
2022/02/06 06:24:07;;;;;;;47.08;29.15;;;;;;;-0.16;100.00;101309.44;4972277;28;20042;-79
2022/02/06 06:26:37;;;;;;;43.90;27.27;;;;;;;0.10;100.00;101319.47;4972462;28;20030;-77
2022/02/06 06:29:03;;;;;;;46.47;29.00;;;;;;;0.37;100.00;101320.22;4971505;28;20150;-75
2022/02/06 06:31:28;;;;;;;46.83;29.77;;;;;;;0.18;100.00;101311.69;4972069;28;20110;-80
2022/02/06 06:33:54;;;;;;;58.00;31.57;;;;;;;0.24;100.00;101332.56;4972101;28;20200;-77
2022/02/06 06:36:21;;;;;;;45.83;29.83;;;;;;;0.29;100.00;101339.84;4972033;28;20030;-74
2022/02/06 06:38:49;;;;;;;42.97;26.77;;;;;;;0.42;100.00;101336.75;4971942;28;20030;-78
2022/02/06 06:41:14;;;;;;;44.20;27.10;;;;;;;0.58;100.00;101330.56;4972103;28;20034;-75
2022/02/06 06:43:40;;;;;;;39.93;26.00;;;;;;;0.60;100.00;101334.13;4972440;28;20536;-75
2022/02/06 06:46:05;;;;;;;41.53;27.47;;;;;;;0.77;100.00;101346.72;4971934;28;20027;-79
2022/02/06 06:48:31;;;;;;;41.57;29.37;;;;;;;0.93;100.00;101341.34;4972234;28;20421;-79
2022/02/06 06:50:56;;;;;;;36.40;22.63;;;;;;;1.18;100.00;101338.44;4972017;28;20382;-82
2022/02/06 06:53:22;;;;;;;33.33;20.30;;;;;;;1.41;100.00;101348.13;4972113;28;20597;-79
2022/02/06 06:55:55;;;;;;;33.73;22.17;;;;;;;1.52;100.00;101351.59;4971918;28;20098;-79
2022/02/06 07:01:31;;;;;;;33.70;21.03;;;;;;;1.62;100.00;101348.22;4950225;29;20081;-81
2022/02/06 07:03:55;;;;;;;29.53;18.93;;;;;;;1.49;100.00;101340.25;4950380;29;20042;-78
2022/02/06 07:06:20;;;;;;;25.50;17.00;;;;;;;1.47;100.00;101352.88;4950195;29;20051;-78
2022/02/06 07:08:46;;;;;;;25.07;17.27;;;;;;;1.68;100.00;101374.19;4950348;29;20130;-80
2022/02/06 07:11:11;;;;;;;27.93;18.47;;;;;;;2.03;100.00;101367.81;4950436;29;20425;-78
2022/02/06 07:13:37;;;;;;;28.20;19.77;;;;;;;2.17;100.00;101356.25;4934179;29;20525;-78
2022/02/06 07:16:02;;;;;;;27.33;18.63;;;;;;;2.47;100.00;101378.34;4950444;29;20102;-82
2022/02/06 07:18:28;;;;;;;25.10;17.30;;;;;;;2.47;100.00;101373.25;4949537;29;20040;-81
2022/02/06 07:20:53;;;;;;;24.50;17.03;;;;;;;2.66;100.00;101372.22;4914140;29;20040;-80
2022/02/06 07:23:19;;;;;;;24.55;17.08;;;;;;;2.80;100.00;101381.91;4931133;29;20058;-78
2022/02/06 07:25:49;;;;;;;21.20;15.27;;;;;;;2.92;100.00;101367.63;4931115;29;20103;-80
2022/02/06 07:28:17;;;;;;;25.27;16.60;;;;;;;3.08;100.00;101381.66;4931360;29;20106;-79
2022/02/06 07:30:44;;;;;;;24.92;16.73;;;;;;;3.19;100.00;101383.41;4931130;29;20118;-81
2022/02/06 07:33:12;;;;;;;23.42;16.08;;;;;;;3.26;100.00;101377.13;4931120;29;20042;-78
2022/02/06 07:35:38;;;;;;;26.48;17.45;;;;;;;3.35;100.00;101371.88;4930994;29;20140;-82
2022/02/06 07:38:03;;;;;;;23.45;16.60;;;;;;;3.49;100.00;101376.44;4940767;29;20044;-83
2022/02/06 07:40:29;;;;;;;23.10;15.45;;;;;;;3.39;100.00;101367.16;4952237;28;20477;-78
2022/02/06 07:42:54;;;;;;;28.42;16.35;;;;;;;3.61;100.00;101375.63;4956063;29;20031;-82
2022/02/06 07:45:20;;;;;;;22.13;15.85;;;;;;;3.84;100.00;101385.13;4955953;29;20054;-78
2022/02/06 07:47:47;;;;;;;22.92;15.32;;;;;;;3.98;100.00;101379.41;4955633;29;20027;-79
2022/02/06 07:50:14;;;;;;;25.25;15.88;;;;;;;4.13;100.00;101381.38;4955684;29;20031;-80
2022/02/06 07:52:41;;;;;;;23.73;15.32;;;;;;;4.26;100.00;101375.56;4955585;29;20028;-78
2022/02/06 07:55:07;;;;;;;24.35;15.43;;;;;;;4.22;100.00;101364.19;4956081;29;20031;-78
2022/02/06 07:57:34;;;;;;;21.05;14.40;;;;;;;4.41;100.00;101378.38;4955616;29;20038;-81
2022/02/06 08:00:01;;;;;;;20.08;13.82;;;;;;;4.47;100.00;101383.97;4955475;29;20482;-78
2022/02/06 08:02:26;;;;;;;21.80;14.48;;;;;;;4.61;100.00;101375.69;4955495;29;20038;-82
2022/02/06 08:04:52;;;;;;;21.08;14.73;;;;;;;4.78;100.00;101382.06;4955410;29;20019;-78
2022/02/06 08:07:18;;;;;;;23.73;14.30;;;;;;;4.97;100.00;101378.31;4955373;29;20038;-79
2022/02/06 08:12:16;;;;;;;18.60;13.38;;;;;;;4.98;100.00;101341.72;4955196;29;20034;-78
2022/02/06 08:14:50;;;;;;;20.70;13.73;;;;;;;5.25;100.00;101388.03;4955385;29;20036;-79
2022/02/06 08:17:19;;;;;;;19.45;13.07;;;;;;;5.34;99.45;101355.41;4955347;29;20436;-79
2022/02/06 08:19:46;;;;;;;22.35;14.38;;;;;;;5.60;100.00;101370.09;4954983;29;20042;-78
2022/02/06 08:22:11;;;;;;;17.40;10.60;;;;;;;5.71;96.55;101352.03;4955346;29;20035;-82
2022/02/06 08:24:37;;;;;;;18.25;11.88;;;;;;;5.84;95.83;101354.69;4955139;29;20110;-78
2022/02/06 08:27:03;;;;;;;11.50;7.22;;;;;;;6.03;86.59;101353.44;4954971;29;20479;-79
2022/02/06 08:29:28;;;;;;;15.77;9.18;;;;;;;6.20;86.39;101362.31;4955123;29;20031;-78
2022/02/06 08:31:54;;;;;;;11.18;7.22;;;;;;;6.27;84.77;101359.38;4955037;29;20110;-78
2022/02/06 08:34:19;;;;;;;15.15;7.65;;;;;;;6.17;83.63;101321.97;4953800;28;20427;-79
2022/02/06 08:36:45;;;;;;;11.50;7.30;;;;;;;6.46;81.87;101364.09;4954778;29;20046;-81
2022/02/06 08:39:10;;;;;;;14.43;7.57;;;;;;;6.62;82.21;101369.47;4954899;29;20036;-81
2022/02/06 08:41:36;;;;;;;11.82;7.30;;;;;;;6.72;82.37;101372.66;4955016;29;20058;-79
2022/02/06 08:44:03;;;;;;;13.07;7.93;;;;;;;6.88;82.02;101375.47;4954887;29;20401;-78
2022/02/06 08:46:28;;;;;;;13.32;8.10;;;;;;;6.86;81.80;101348.78;4954504;29;20031;-77
2022/02/06 08:48:54;;;;;;;13.85;8.15;;;;;;;7.13;80.06;101375.38;4954821;29;20034;-81
2022/02/06 08:51:19;;;;;;;12.85;7.07;;;;;;;7.22;80.81;101377.66;4954782;29;20457;-78
2022/02/06 08:53:45;;;;;;;13.35;7.28;;;;;;;7.20;80.03;101361.28;4953669;28;20086;-79
2022/02/06 08:56:10;;;;;;;12.40;6.88;;;;;;;7.37;77.98;101361.47;4954529;29;20082;-83
2022/02/06 08:58:36;;;;;;;13.60;7.55;;;;;;;7.41;77.86;101368.56;4954634;29;20750;-79
2022/02/06 09:01:02;;;;;;;12.35;6.80;;;;;;;7.45;77.79;101352.56;4954300;29;20042;-79
2022/02/06 09:03:27;;;;;;;10.13;7.30;;;;;;;7.60;78.27;101358.69;4954724;29;20035;-80
2022/02/06 09:05:53;;;;;;;11.45;6.70;;;;;;;7.76;78.30;101370.84;4954448;29;20046;-80
2022/02/06 09:08:18;;;;;;;11.85;6.80;;;;;;;7.77;77.65;101358.84;4954446;29;20070;-77
2022/02/06 09:10:44;;;;;;;12.30;6.85;;;;;;;7.88;77.55;101370.69;4954377;29;20038;-77
2022/02/06 09:13:09;;;;;;;10.20;6.43;;;;;;;7.98;77.11;101367.00;4936397;29;20074;-76
2022/02/06 09:15:35;;;;;;;8.98;5.03;;;;;;;8.04;72.30;101361.38;4954125;29;20031;-77
2022/02/06 09:18:01;;;;;;;7.32;3.92;;;;;;;7.89;66.73;101343.31;4954183;29;20405;-77
2022/02/06 09:20:28;;;;;;;7.70;4.35;;;;;;;7.89;66.46;101328.78;4953934;29;20031;-77
2022/02/06 09:22:53;;;;;;;6.30;3.92;;;;;;;8.05;65.22;101324.56;4954005;29;20114;-76
2022/02/06 09:25:19;;;;;;;6.60;3.83;;;;;;;8.09;66.31;101300.81;4954094;29;20085;-79
2022/02/06 09:27:44;;;;;;;6.40;3.58;;;;;;;8.45;66.47;101344.06;4953858;29;20035;-77
2022/02/06 09:30:17;;;;;;;9.43;3.70;;;;;;;8.59;66.19;101343.25;4953929;29;20066;-76
2022/02/06 09:35:10;;;;;;;6.90;3.70;;;;;;;8.78;63.47;101344.34;4954103;29;20039;-77
2022/02/06 09:37:35;;;;;;;6.38;3.17;;;;;;;8.86;63.05;101340.50;4953941;29;20035;-75
2022/02/06 09:40:03;;;;;;;9.95;4.10;;;;;;;8.84;62.02;101335.28;4953748;29;20027;-77
2022/02/06 09:42:30;;;;;;;7.28;3.67;;;;;;;8.87;63.79;101325.16;4953635;29;20031;-77
2022/02/06 09:44:56;;;;;;;8.68;3.80;;;;;;;9.00;62.69;101323.28;4953595;29;20094;-80
2022/02/06 09:47:27;;;;;;;6.45;3.78;;;;;;;9.03;62.40;101303.75;4953564;29;20030;-77
2022/02/06 09:49:53;;;;;;;13.35;4.18;;;;;;;9.18;63.54;101313.13;4953764;29;20034;-76
2022/02/06 09:52:28;;;;;;;7.40;3.70;;;;;;;9.10;63.56;101280.88;4953380;29;20094;-77
2022/02/06 09:55:15;;;;;;;12.85;3.80;;;;;;;9.33;62.79;101306.28;4953517;29;20037;-79
2022/02/06 09:57:52;;;;;;;7.43;2.92;;;;;;;9.32;60.73;101298.44;4953535;29;20027;-77
2022/02/06 10:00:20;;;;;;;7.45;3.42;;;;;;;9.37;59.36;101290.16;4953376;29;20030;-81
2022/02/06 10:02:50;;;;;;;6.20;3.00;;;;;;;9.58;60.08;101288.66;4953258;29;20494;-77
2022/02/06 10:05:17;;;;;;;4.50;2.78;;;;;;;9.70;57.83;101289.34;4953261;28;20038;-78
2022/02/06 10:07:52;;;;;;;5.65;3.30;;;;;;;9.80;58.70;101288.13;4953536;29;20039;-80
2022/02/06 10:10:20;;;;;;;5.85;2.78;;;;;;;9.81;59.34;101285.63;4953336;29;20127;-79
2022/02/06 10:12:47;;;;;;;7.47;3.10;;;;;;;9.95;59.00;101280.31;4953386;29;20031;-80
2022/02/06 10:15:15;;;;;;;5.57;3.13;;;;;;;10.17;56.90;101282.34;4952060;28;20556;-81
2022/02/06 10:17:41;;;;;;;6.18;3.70;;;;;;;10.39;59.39;101270.56;4953101;29;20120;-82
2022/02/06 10:20:32;;;;;;;5.28;3.15;;;;;;;10.41;56.91;101256.03;4952882;29;20114;-82
2022/02/06 10:23:05;;;;;;;6.30;3.55;;;;;;;10.27;55.86;101235.53;4953082;29;20042;-79
2022/02/06 10:25:40;;;;;;;9.88;3.70;;;;;;;10.45;56.50;101256.25;4951895;29;20126;-80
2022/02/06 10:30:51;;;;;;;9.02;3.60;;;;;;;10.59;57.43;101228.56;4952700;29;20035;-81
2022/02/06 10:33:43;;;;;;;7.10;3.88;;;;;;;10.54;54.15;101245.47;4951850;29;20039;-81
2022/02/06 10:36:09;;;;;;;7.18;4.07;;;;;;;10.62;55.03;101225.22;4952451;29;20086;-82
2022/02/06 10:38:34;;;;;;;5.25;3.45;;;;;;;10.65;54.68;101208.19;4952862;29;20035;-78
2022/02/06 10:41:11;;;;;;;9.27;4.47;;;;;;;10.88;56.10;101231.66;4952764;29;20035;-79
2022/02/06 10:43:38;;;;;;;5.82;3.70;;;;;;;10.97;53.97;101211.41;4953040;29;20030;-81
2022/02/06 10:46:26;;;;;;;6.75;3.58;;;;;;;10.97;54.69;101206.25;4950436;29;20043;-83
2022/02/06 10:48:55;;;;;;;6.10;3.85;;;;;;;10.78;55.09;101168.34;4948026;29;20046;-81
2022/02/06 10:51:57;;;;;;;8.52;5.10;;;;;;;11.23;53.45;101210.88;4950405;29;20079;-79
2022/02/06 10:54:28;;;;;;;41.10;19.88;;;;;;;11.25;54.47;101206.66;4950460;29;20035;-82
2022/02/06 10:57:10;;;;;;;8.65;4.40;;;;;;;11.32;56.24;101196.66;4950476;29;20511;-81
2022/02/06 10:59:52;;;;;;;9.85;4.45;;;;;;;11.36;53.66;101189.06;4950394;29;20130;-80
2022/02/06 11:02:48;;;;;;;5.88;3.70;;;;;;;11.20;55.35;101184.88;4950517;29;20401;-80
2022/02/06 11:08:01;;;;;;;7.35;4.25;;;;;;;11.24;56.12;101169.59;4950014;29;20050;-80
2022/02/06 11:10:32;;;;;;;6.18;3.90;;;;;;;11.27;54.58;101167.13;4950361;29;20071;-81
2022/02/06 11:13:09;;;;;;;8.60;4.13;;;;;;;11.42;53.89;101174.69;4950307;29;20032;-78
2022/02/06 11:15:41;;;;;;;9.90;4.53;;;;;;;11.41;55.22;101157.41;4950558;28;20133;-78
2022/02/06 11:18:33;;;;;;;11.75;5.80;;;;;;;11.47;57.55;101169.72;4954404;29;20532;-77
2022/02/06 11:21:05;;;;;;;11.70;7.13;;;;;;;11.47;56.18;101162.84;4953931;29;20110;-77
2022/02/06 11:23:36;;;;;;;12.60;8.27;;;;;;;11.79;55.93;101155.63;4954651;29;20110;-80
2022/02/06 11:26:04;;;;;;;13.60;9.05;;;;;;;11.33;57.30;101126.03;4956299;29;20042;-77
2022/02/06 11:28:30;;;;;;;13.85;8.68;;;;;;;11.53;58.54;101158.78;4956204;29;20035;-81
2022/02/06 11:30:55;;;;;;;10.13;7.00;;;;;;;11.49;57.32;101150.00;4956085;29;20122;-75
2022/02/06 11:33:22;;;;;;;11.13;6.22;;;;;;;11.47;57.48;101147.31;4956235;29;20062;-78
2022/02/06 11:35:56;;;;;;;8.35;5.57;;;;;;;11.20;57.61;101165.06;4955871;29;20482;-75
2022/02/06 11:44:28;;;;;;;10.98;7.20;;;;;;;11.39;59.82;101116.78;4956166;29;20467;-74
2022/02/06 11:47:03;;;;;;;9.85;6.72;;;;;;;11.85;58.01;101146.34;4955744;29;20023;-75
2022/02/06 11:49:28;;;;;;;8.73;5.43;;;;;;;11.81;56.73;101145.31;4955677;29;20039;-77
2022/02/06 11:51:59;;;;;;;9.63;5.70;;;;;;;11.49;57.62;101130.19;4955574;29;20510;-74
2022/02/06 11:54:32;;;;;;;13.10;6.43;;;;;;;11.33;58.70;101128.63;4955883;29;20029;-77
2022/02/06 11:57:23;;;;;;;11.20;7.80;;;;;;;11.46;61.35;101122.31;4955736;29;20510;-80
2022/02/06 12:00:06;;;;;;;10.40;6.65;;;;;;;11.31;60.36;101117.34;4877643;29;20041;-78
2022/02/06 12:02:33;;;;;;;12.25;8.20;;;;;;;11.21;60.29;101111.69;4877482;29;20872;-76
2022/02/06 12:05:24;;;;;;;10.60;7.35;;;;;;;10.94;60.81;101066.59;4877553;29;20049;-76
2022/02/06 12:07:53;;;;;;;12.15;6.45;;;;;;;11.38;60.01;101064.22;4877662;29;20509;-78
2022/02/06 12:10:34;;;;;;;9.85;6.93;;;;;;;11.84;57.69;101091.16;4877546;29;20076;-78
2022/02/06 12:13:37;;;;;;;10.82;6.70;;;;;;;12.05;57.09;101083.41;4877517;29;20476;-83
2022/02/06 12:16:05;;;;;;;9.35;5.90;;;;;;;11.71;57.12;101087.13;4877284;29;20109;-80
2022/02/06 12:18:58;;;;;;;12.52;6.28;;;;;;;12.04;55.16;101093.72;4877224;29;20413;-79
2022/02/06 12:21:24;;;;;;;11.45;7.60;;;;;;;12.28;54.47;101084.31;4877047;29;20519;-81
2022/02/06 12:23:57;;;;;;;10.40;5.43;;;;;;;12.33;53.10;101070.69;4877259;29;20045;-79
2022/02/06 12:26:30;;;;;;;9.93;6.40;;;;;;;12.44;53.51;101074.59;4877226;29;20055;-78
2022/02/06 12:28:59;;;;;;;9.88;6.72;;;;;;;12.49;54.19;101069.59;4877171;29;20112;-78
2022/02/06 12:31:30;;;;;;;8.00;5.60;;;;;;;12.66;53.97;101073.72;4876965;29;20045;-78
2022/02/06 12:37:07;;;;;;;6.57;4.50;;;;;;;12.50;55.34;101068.75;4891256;29;20044;-79
2022/02/06 12:39:35;;;;;;;8.00;4.10;;;;;;;12.37;53.96;101057.91;4914392;29;20123;-79
2022/02/06 12:42:04;;;;;;;8.50;5.47;;;;;;;11.95;54.66;101006.19;4914631;29;20052;-78
2022/02/06 12:44:30;;;;;;;10.05;5.60;;;;;;;12.10;55.84;101042.16;4914446;29;20036;-82
2022/02/06 12:46:59;;;;;;;13.35;7.07;;;;;;;12.10;56.20;101047.34;4914429;29;20581;-82
2022/02/06 12:49:34;;;;;;;17.08;9.55;;;;;;;12.03;55.64;101033.28;4914415;29;20043;-82
2022/02/06 12:52:01;;;;;;;15.38;9.18;;;;;;;11.97;55.83;101041.72;4927846;29;20067;-78
2022/02/06 12:54:27;;;;;;;8.68;5.90;;;;;;;11.92;58.02;101047.47;4954893;29;20034;-79
2022/02/06 12:56:57;;;;;;;21.33;13.18;;;;;;;11.53;57.09;100976.06;4954848;29;20023;-83
2022/02/06 12:59:25;;;;;;;9.25;5.60;;;;;;;11.80;56.47;101040.97;4954629;29;20065;-80
2022/02/06 13:01:53;;;;;;;10.25;6.85;;;;;;;11.77;57.43;101039.97;4954408;29;20117;-82
2022/02/06 13:04:22;;;;;;;8.30;5.50;;;;;;;11.76;57.24;101025.25;4954512;29;20410;-78
2022/02/06 13:06:58;;;;;;;9.35;6.90;;;;;;;11.81;57.22;101031.50;4954578;29;20118;-79
2022/02/06 13:09:32;;;;;;;7.18;4.28;;;;;;;11.71;57.77;101032.81;4954479;29;20063;-80
2022/02/06 13:30:01;;;;;;;6.20;3.85;;;;;;;11.50;58.01;100994.03;4913527;29;20028;-79
2022/02/06 13:32:58;;;;;;;6.97;4.00;;;;;;;11.62;58.85;101020.38;4913433;29;20111;-79
2022/02/06 13:38:11;;;;;;;6.15;4.32;;;;;;;11.48;57.85;101004.31;4913306;29;20032;-79
2022/02/06 13:40:47;;;;;;;7.68;4.32;;;;;;;11.60;57.93;101001.38;4913171;29;20036;-82
2022/02/06 13:43:18;;;;;;;6.35;3.55;;;;;;;11.72;58.75;101013.03;4939595;29;20043;-80
2022/02/06 13:45:45;;;;;;;5.57;3.75;;;;;;;11.49;58.46;100984.53;4953676;29;20027;-79
2022/02/06 13:48:13;;;;;;;6.70;3.65;;;;;;;11.46;58.98;100993.03;4953612;29;20026;-80
2022/02/06 13:50:46;;;;;;;7.35;4.20;;;;;;;11.40;60.17;101005.72;4953457;29;20101;-83
2022/02/06 13:53:16;;;;;;;10.35;4.15;;;;;;;11.31;61.02;100998.44;4953759;29;20028;-79
2022/02/06 13:55:53;;;;;;;8.02;4.13;;;;;;;11.30;60.88;100994.09;4953701;29;20043;-83
2022/02/06 13:58:29;;;;;;;5.95;3.63;;;;;;;11.20;61.27;100991.91;4953234;29;20042;-79
2022/02/06 14:01:02;;;;;;;8.85;4.35;;;;;;;11.14;62.19;100982.22;4953300;29;20039;-82
2022/02/06 14:03:48;;;;;;;6.57;3.83;;;;;;;10.90;61.21;100952.72;4953163;29;20057;-78
2022/02/06 14:06:20;;;;;;;5.60;3.63;;;;;;;10.76;62.38;100926.31;4953213;29;20049;-78
2022/02/06 14:09:06;;;;;;;6.90;3.63;;;;;;;10.91;63.54;100951.91;4953476;28;20059;-81
2022/02/06 14:11:32;;;;;;;9.70;4.57;;;;;;;11.07;63.07;100974.13;4953086;29;20042;-83
2022/02/06 14:14:16;;;;;;;7.57;4.40;;;;;;;11.06;64.29;100968.06;4953210;29;20031;-82